createdAt,value
2022-08-01T00:00:10.030Z,22.84
2022-08-01T00:02:39.383Z,22.87
2022-08-01T00:05:07.534Z,22.92
2022-08-01T00:07:35.147Z,22.96
2022-08-01T00:10:03.753Z,22.97
2022-08-01T00:12:30.705Z,22.93
2022-08-01T00:14:57.571Z,22.90
2022-08-01T00:17:24.437Z,22.82
2022-08-01T00:19:51.374Z,22.83
2022-08-01T00:22:18.231Z,22.78
2022-08-01T00:24:45.117Z,22.71
2022-08-01T00:27:12.019Z,22.69
2022-08-01T00:30:12.645Z,22.71
2022-08-01T00:32:26.003Z,22.79
2022-08-01T00:34:52.910Z,22.74
2022-08-01T00:37:19.740Z,22.71
2022-08-01T00:39:46.736Z,22.73
2022-08-01T00:42:13.953Z,22.75
2022-08-01T00:44:40.995Z,22.78
2022-08-01T00:47:09.869Z,22.78
2022-08-01T00:49:37.239Z,22.78
2022-08-01T00:52:06.086Z,22.83
2022-08-01T00:54:33.572Z,22.79
2022-08-01T00:57:00.879Z,22.76
2022-08-01T00:59:27.991Z,22.68
2022-08-01T01:01:55.559Z,22.65
2022-08-01T01:04:23.214Z,22.73
2022-08-01T01:07:05.206Z,22.71
2022-08-01T01:09:31.996Z,22.74
2022-08-01T01:12:04.685Z,22.73
2022-08-01T01:14:47.434Z,22.68
2022-08-01T01:17:49.394Z,22.67
2022-08-01T01:20:07.460Z,22.61
2022-08-01T01:22:38.659Z,22.58
2022-08-01T01:25:25.562Z,22.59
2022-08-01T01:28:04.153Z,22.60
2022-08-01T01:30:34.143Z,22.58
2022-08-01T01:33:03.967Z,22.61
2022-08-01T01:35:35.323Z,22.64
2022-08-01T01:38:23.494Z,22.63
2022-08-01T01:40:52.118Z,22.53
2022-08-01T01:43:20.446Z,22.57
2022-08-01T01:45:49.132Z,22.55
2022-08-01T01:48:21.094Z,22.47
2022-08-01T01:50:49.169Z,22.49
2022-08-01T01:53:17.610Z,22.56
2022-08-01T01:55:49.693Z,22.60
2022-08-01T01:58:18.890Z,22.55
2022-08-01T02:00:46.909Z,22.55
2022-08-01T02:03:14.442Z,22.53
2022-08-01T02:05:43.358Z,22.53
2022-08-01T02:08:12.371Z,22.56
2022-08-01T02:10:40.291Z,22.55
2022-08-01T02:13:07.743Z,22.46
2022-08-01T02:15:39.437Z,22.45
2022-08-01T02:18:26.413Z,22.34
2022-08-01T02:20:54.227Z,22.35
2022-08-01T02:23:22.848Z,22.36
2022-08-01T02:26:10.249Z,22.39
2022-08-01T02:28:44.934Z,22.38
2022-08-01T02:31:17.507Z,22.42
2022-08-01T02:33:53.175Z,22.36
2022-08-01T02:36:30.041Z,22.36
2022-08-01T02:39:01.103Z,22.25
2022-08-01T02:41:28.513Z,22.34
2022-08-01T02:44:04.477Z,22.34
2022-08-01T02:46:37.310Z,22.35
2022-08-01T02:49:06.306Z,22.37
2022-08-01T02:51:34.385Z,22.36
2022-08-01T02:54:03.494Z,22.39
2022-08-01T02:56:36.005Z,22.39
2022-08-01T02:59:10.394Z,22.40
2022-08-01T03:01:42.213Z,22.38
2022-08-01T03:04:11.038Z,22.31
2022-08-01T03:06:38.693Z,22.32
2022-08-01T03:09:06.225Z,22.28
2022-08-01T03:11:34.125Z,22.26
2022-08-01T03:14:03.491Z,22.25
2022-08-01T03:16:32.646Z,22.22
2022-08-01T03:19:01.658Z,22.22
2022-08-01T03:21:29.493Z,22.27
2022-08-01T03:23:59.304Z,22.25
2022-08-01T03:26:30.396Z,22.23
2022-08-01T03:28:59.085Z,22.15
2022-08-01T03:31:26.630Z,22.10
2022-08-01T03:33:53.738Z,22.12
2022-08-01T03:36:27.907Z,22.18
2022-08-01T03:38:58.072Z,22.19
2022-08-01T03:41:27.696Z,22.24
2022-08-01T03:44:01.973Z,22.23
2022-08-01T03:46:36.861Z,22.22
2022-08-01T03:49:09.966Z,22.24
2022-08-01T03:51:38.477Z,22.19
2022-08-01T03:54:05.799Z,22.15
2022-08-01T03:56:33.838Z,22.09
2022-08-01T03:59:02.043Z,22.12
2022-08-01T04:01:30.625Z,22.14
2022-08-01T04:03:59.869Z,22.11
2022-08-01T04:06:26.772Z,22.09
2022-08-01T04:08:59.464Z,22.06
2022-08-01T04:11:27.121Z,22.03
2022-08-01T04:13:54.575Z,22.06
2022-08-01T04:16:23.150Z,22.07
2022-08-01T04:18:50.098Z,22.07
2022-08-01T04:21:20.100Z,22.08
2022-08-01T04:23:48.040Z,22.09
2022-08-01T04:26:19.904Z,22.09
2022-08-01T04:28:47.689Z,22.07
2022-08-01T04:31:15.828Z,21.98
2022-08-01T04:33:49.472Z,22.00
2022-08-01T04:36:17.589Z,21.99
2022-08-01T04:38:47.236Z,22.08
2022-08-01T04:41:15.104Z,22.09
2022-08-01T04:43:44.296Z,22.10
2022-08-01T04:46:11.606Z,22.12
2022-08-01T04:48:39.731Z,22.09
2022-08-01T04:51:14.166Z,22.09
2022-08-01T04:53:41.248Z,22.07
2022-08-01T04:56:08.207Z,22.08
2022-08-01T04:58:35.156Z,22.07
2022-08-01T05:01:02.083Z,22.09
2022-08-01T05:03:29.002Z,22.05
2022-08-01T05:05:55.891Z,22.06
2022-08-01T05:08:22.726Z,22.03
2022-08-01T05:10:49.617Z,21.99
2022-08-01T05:13:16.838Z,22.03
2022-08-01T05:15:43.747Z,21.95
2022-08-01T05:18:10.773Z,21.92
2022-08-01T05:20:38.328Z,21.91
2022-08-01T05:23:06.260Z,21.87
2022-08-01T05:25:56.472Z,21.89
2022-08-01T05:28:22.949Z,21.98
2022-08-01T05:30:49.859Z,21.91
2022-08-01T05:33:16.740Z,21.88
2022-08-01T05:35:47.779Z,21.88
2022-08-01T05:38:15.308Z,21.90
2022-08-01T05:40:42.248Z,21.95
2022-08-01T05:43:09.161Z,21.94
2022-08-01T05:45:36.093Z,21.90
2022-08-01T05:48:03.067Z,21.90
2022-08-01T05:50:29.928Z,21.96
2022-08-01T05:52:56.774Z,22.02
2022-08-01T05:55:23.681Z,22.04
2022-08-01T05:57:50.761Z,22.04
2022-08-01T06:00:17.776Z,22.05
2022-08-01T06:02:44.794Z,22.09
2022-08-01T06:05:13.413Z,22.05
2022-08-01T06:07:40.886Z,22.09
2022-08-01T06:10:08.700Z,22.06
2022-08-01T06:12:36.264Z,22.12
2022-08-01T06:15:04.577Z,22.10
2022-08-01T06:17:31.418Z,22.09
2022-08-01T06:19:58.390Z,22.08
2022-08-01T06:22:25.271Z,22.08
2022-08-01T06:24:52.756Z,22.12
2022-08-01T06:27:22.164Z,22.18
2022-08-01T06:29:51.210Z,22.15
2022-08-01T06:32:26.301Z,22.19
2022-08-01T06:34:55.324Z,22.21
2022-08-01T06:37:22.765Z,22.20
2022-08-01T06:39:50.836Z,22.18
2022-08-01T06:42:18.748Z,22.12
2022-08-01T06:44:46.238Z,22.17
2022-08-01T06:47:13.207Z,22.18
2022-08-01T06:49:40.269Z,22.16
2022-08-01T06:52:07.583Z,22.19
2022-08-01T06:54:34.691Z,22.20
2022-08-01T06:57:01.778Z,22.15
2022-08-01T06:59:29.173Z,22.18
2022-08-01T07:01:56.021Z,22.15
2022-08-01T07:04:23.016Z,22.16
2022-08-01T07:06:50.980Z,22.18
2022-08-01T07:09:17.974Z,22.19
2022-08-01T07:11:44.835Z,22.08
2022-08-01T07:14:11.716Z,22.10
2022-08-01T07:16:38.681Z,22.11
2022-08-01T07:19:05.560Z,22.04
2022-08-01T07:21:39.014Z,22.03
2022-08-01T07:24:13.073Z,22.05
2022-08-01T07:26:52.679Z,22.06
2022-08-01T07:29:24.453Z,22.07
2022-08-01T07:31:55.379Z,22.09
2022-08-01T07:34:23.401Z,22.11
2022-08-01T07:36:50.710Z,22.06
2022-08-01T07:39:17.580Z,22.07
2022-08-01T07:41:52.664Z,22.04
2022-08-01T07:44:31.479Z,22.02
2022-08-01T07:46:58.586Z,22.10
2022-08-01T07:49:25.506Z,22.12
2022-08-01T07:52:03.311Z,22.16
2022-08-01T07:54:33.526Z,22.15
2022-08-01T07:57:01.771Z,22.21
2022-08-01T07:59:28.893Z,22.13
2022-08-01T08:01:55.867Z,22.13
2022-08-01T08:04:22.993Z,22.17
2022-08-01T08:06:50.303Z,22.22
2022-08-01T08:09:17.366Z,22.22
2022-08-01T08:11:48.308Z,22.23
2022-08-01T08:14:16.464Z,22.26
2022-08-01T08:16:44.351Z,22.25
2022-08-01T08:19:11.945Z,22.25
2022-08-01T08:21:39.559Z,22.28
2022-08-01T08:24:26.671Z,22.30
2022-08-01T08:27:01.058Z,22.34
2022-08-01T08:29:30.800Z,22.42
2022-08-01T08:31:58.861Z,22.47
2022-08-01T08:34:27.041Z,22.44
2022-08-01T08:36:54.443Z,22.45
2022-08-01T08:39:21.712Z,22.43
2022-08-01T08:41:49.534Z,22.46
2022-08-01T08:44:17.950Z,22.48
2022-08-01T08:46:47.136Z,22.48
2022-08-01T08:49:18.558Z,22.51
2022-08-01T08:51:49.069Z,22.47
2022-08-01T08:54:19.237Z,22.47
2022-08-01T08:56:47.796Z,22.49
2022-08-01T08:59:15.055Z,22.54
2022-08-01T09:01:43.326Z,22.58
2022-08-01T09:04:10.720Z,22.59
2022-08-01T09:06:38.385Z,22.62
2022-08-01T09:09:06.020Z,22.61
2022-08-01T09:11:34.443Z,22.62
2022-08-01T09:14:05.837Z,22.66
2022-08-01T09:16:33.619Z,22.71
2022-08-01T09:19:16.027Z,22.71
2022-08-01T09:22:04.781Z,22.75
2022-08-01T09:24:33.285Z,22.78
2022-08-01T09:27:03.315Z,22.79
2022-08-01T09:29:37.196Z,22.85
2022-08-01T09:32:14.018Z,22.87
2022-08-01T09:34:43.479Z,22.83
2022-08-01T09:37:10.841Z,22.81
2022-08-01T09:39:41.381Z,22.79
2022-08-01T09:42:28.760Z,22.86
2022-08-01T09:44:56.517Z,22.92
2022-08-01T09:47:25.512Z,22.91
2022-08-01T09:49:59.486Z,22.93
2022-08-01T09:52:29.346Z,22.96
2022-08-01T09:55:01.259Z,23.00
2022-08-01T09:57:29.693Z,23.01
2022-08-01T10:00:01.282Z,23.03
2022-08-01T10:02:32.650Z,23.05
2022-08-01T10:05:08.184Z,23.09
2022-08-01T10:07:42.931Z,23.12
2022-08-01T10:10:16.446Z,23.15
2022-08-01T10:12:45.676Z,23.17
2022-08-01T10:15:16.534Z,23.24
2022-08-01T10:17:57.312Z,23.25
2022-08-01T10:20:32.186Z,23.26
2022-08-01T10:23:02.284Z,23.30
2022-08-01T10:25:43.530Z,23.32
2022-08-01T10:28:24.151Z,23.37
2022-08-01T10:30:53.251Z,23.42
2022-08-01T10:33:50.714Z,23.48
2022-08-01T10:36:11.305Z,23.56
2022-08-01T10:38:38.707Z,23.57
2022-08-01T10:41:09.084Z,23.59
2022-08-01T10:43:37.041Z,23.67
2022-08-01T10:46:05.493Z,23.71
2022-08-01T10:48:52.154Z,23.79
2022-08-01T10:51:21.661Z,23.75
2022-08-01T10:53:54.838Z,23.80
2022-08-01T10:56:27.160Z,23.88
2022-08-01T10:59:06.395Z,23.95
2022-08-01T11:01:43.424Z,24.01
2022-08-01T11:04:17.719Z,24.05
2022-08-01T11:06:52.102Z,24.12
2022-08-01T11:09:36.108Z,24.17
2022-08-01T11:12:07.458Z,24.24
2022-08-01T11:14:55.329Z,24.32
2022-08-01T11:17:31.580Z,24.49
2022-08-01T11:20:19.044Z,24.63
2022-08-01T11:23:01.994Z,24.75
2022-08-01T11:26:03.535Z,24.84
2022-08-01T11:28:33.228Z,24.93
2022-08-01T11:31:11.268Z,25.00
2022-08-01T11:33:41.440Z,25.09
2022-08-01T11:36:11.779Z,25.16
2022-08-01T11:38:46.537Z,25.21
2022-08-01T11:41:15.814Z,25.23
2022-08-01T11:44:02.502Z,25.20
2022-08-01T11:47:01.328Z,25.26
2022-08-01T11:49:39.696Z,25.27
2022-08-01T11:52:18.942Z,25.24
2022-08-01T11:54:56.873Z,25.22
2022-08-01T11:57:36.268Z,25.22
2022-08-01T12:00:16.865Z,25.23
2022-08-01T12:02:46.889Z,25.26
2022-08-01T12:05:17.808Z,25.31
2022-08-01T12:07:47.033Z,25.38
2022-08-01T12:10:17.969Z,25.45
2022-08-01T12:12:56.183Z,25.57
2022-08-01T12:15:25.301Z,25.66
2022-08-01T12:18:06.232Z,25.65
2022-08-01T12:20:35.123Z,25.68
2022-08-01T12:23:04.320Z,25.73
2022-08-01T12:25:32.821Z,25.78
2022-08-01T12:28:08.507Z,25.83
2022-08-01T12:30:37.765Z,25.92
2022-08-01T12:33:06.490Z,26.01
2022-08-01T12:35:34.272Z,26.05
2022-08-01T12:38:14.773Z,26.08
2022-08-01T12:40:45.558Z,26.10
2022-08-01T12:43:27.212Z,26.13
2022-08-01T12:45:57.736Z,26.20
2022-08-01T12:48:25.697Z,26.25
2022-08-01T12:50:53.902Z,26.26
2022-08-01T12:53:21.533Z,26.24
2022-08-01T12:55:58.359Z,26.27
2022-08-01T12:58:32.535Z,26.28
2022-08-01T13:01:11.560Z,26.28
2022-08-01T13:03:39.391Z,26.34
2022-08-01T13:06:16.626Z,26.39
2022-08-01T13:08:44.899Z,26.37
2022-08-01T13:11:17.797Z,26.36
2022-08-01T13:13:52.805Z,26.35
2022-08-01T13:16:55.194Z,26.38
2022-08-01T13:19:15.028Z,26.38
2022-08-01T13:21:55.911Z,26.40
2022-08-01T13:24:29.649Z,26.39
2022-08-01T13:27:01.814Z,26.42
2022-08-01T13:29:39.635Z,26.44
2022-08-01T13:32:23.078Z,26.49
2022-08-01T13:35:08.993Z,26.47
2022-08-01T13:37:39.629Z,26.45
2022-08-01T13:40:08.163Z,26.50
2022-08-01T13:42:35.343Z,26.55
2022-08-01T13:45:03.839Z,26.53
2022-08-01T13:47:32.542Z,26.51
2022-08-01T13:50:03.486Z,26.51
2022-08-01T13:52:31.973Z,26.47
2022-08-01T13:54:59.396Z,26.45
2022-08-01T13:57:26.661Z,26.45
2022-08-01T14:00:07.316Z,26.42
2022-08-01T14:02:34.189Z,26.40
2022-08-01T14:05:02.473Z,26.40
2022-08-01T14:07:29.384Z,26.39
2022-08-01T14:10:05.042Z,26.39
2022-08-01T14:12:45.842Z,26.42
2022-08-01T14:15:12.904Z,26.43
2022-08-01T14:17:40.723Z,26.43
2022-08-01T14:20:15.031Z,26.43
2022-08-01T14:22:42.192Z,26.43
2022-08-01T14:25:09.634Z,26.41
2022-08-01T14:27:37.512Z,26.40
2022-08-01T14:30:05.519Z,26.37
2022-08-01T14:32:34.406Z,26.37
